createdAt,value
2022-11-15T00:05:24.027Z,92
2022-11-15T00:15:24.027Z,91.9
2022-11-15T00:25:24.050Z,92
2022-11-15T00:35:24.072Z,92.4
2022-11-15T00:45:24.083Z,92.5
2022-11-15T00:55:24.100Z,92.6
2022-11-15T01:05:24.123Z,92.7
2022-11-15T01:15:24.152Z,92.6
2022-11-15T01:25:24.177Z,92.5
2022-11-15T01:35:24.156Z,92.8
2022-11-15T01:45:24.236Z,93.5
2022-11-15T01:55:24.224Z,93.6
2022-11-15T02:05:24.272Z,93.1
2022-11-15T02:15:24.267Z,92.6
2022-11-15T02:25:24.304Z,92.3
2022-11-15T02:35:24.281Z,92.1
2022-11-15T02:45:24.335Z,91.9
2022-11-15T02:55:24.336Z,91.8
2022-11-15T03:05:24.392Z,91.3
2022-11-15T03:15:24.366Z,91
2022-11-15T03:25:24.426Z,90.6
2022-11-15T03:35:24.401Z,90.4
2022-11-15T03:45:24.452Z,90.1
2022-11-15T03:55:24.431Z,90.3
2022-11-15T04:15:24.531Z,90.8
2022-11-15T04:25:28.382Z,91.1
2022-11-15T04:35:24.579Z,91.8
2022-11-15T04:45:24.532Z,92.3
2022-11-15T04:55:24.582Z,92.5
2022-11-15T05:15:24.624Z,92.4
2022-11-15T05:35:24.656Z,92.4
2022-11-15T05:45:27.028Z,92.1
2022-11-15T05:55:24.708Z,92.3
2022-11-15T06:05:24.718Z,92.1
2022-11-15T06:15:24.740Z,92.3
2022-11-15T06:25:24.745Z,92.3
2022-11-15T06:35:24.805Z,92.5
2022-11-15T06:45:24.790Z,92.4
2022-11-15T06:55:24.827Z,92.6
2022-11-15T07:05:24.808Z,92.6
2022-11-15T07:15:24.865Z,92.6
2022-11-15T07:25:24.847Z,92.2
2022-11-15T07:35:24.907Z,92
2022-11-15T07:45:24.924Z,92.1
2022-11-15T07:55:24.970Z,91.7
2022-11-15T08:05:24.949Z,90.7
2022-11-15T08:15:24.992Z,89.1
2022-11-15T08:25:24.967Z,88.5
2022-11-15T08:35:28.828Z,87.2
2022-11-15T08:45:25.018Z,86.3
2022-11-15T08:55:25.232Z,84.9
2022-11-15T09:05:25.058Z,84.1
2022-11-15T09:15:25.117Z,82
2022-11-15T09:25:25.091Z,79.9
2022-11-15T09:35:25.145Z,78.7
2022-11-15T09:45:25.151Z,78.5
2022-11-15T09:55:25.172Z,77.2
2022-11-15T10:05:25.195Z,77.1
2022-11-15T10:15:25.223Z,76.6
2022-11-15T10:25:25.217Z,75.4
2022-11-15T10:35:25.249Z,75.3
2022-11-15T10:45:25.246Z,74.9
2022-11-15T10:55:25.284Z,74.5
2022-11-15T11:05:25.279Z,74
2022-11-15T11:15:25.353Z,72
2022-11-15T11:25:25.316Z,73.1
2022-11-15T11:35:25.384Z,74.8
2022-11-15T11:45:25.352Z,76.2
2022-11-15T11:55:25.394Z,76.2
2022-11-15T12:05:25.397Z,76.6
2022-11-15T12:15:25.426Z,76.7
2022-11-15T12:25:25.461Z,76.5
2022-11-15T12:35:25.478Z,75.1
2022-11-15T12:45:25.466Z,75
2022-11-15T12:55:25.508Z,76
2022-11-15T13:15:25.538Z,76.9
2022-11-15T13:25:25.548Z,77.1
2022-11-15T13:45:25.600Z,77.5
2022-11-15T13:55:25.579Z,77.3
2022-11-15T14:05:25.610Z,77.6
2022-11-15T14:15:25.629Z,77.6
2022-11-15T14:25:25.675Z,77.9
2022-11-15T14:35:25.648Z,77.8
2022-11-15T14:45:25.696Z,78.2
2022-11-15T14:55:25.708Z,78.8
2022-11-15T15:05:25.730Z,79.1
2022-11-15T15:15:25.784Z,79.2
2022-11-15T15:25:25.775Z,79.9
2022-11-15T15:35:25.793Z,79.7
2022-11-15T15:45:25.835Z,79.8
2022-11-15T15:55:25.836Z,79.5
2022-11-15T16:05:25.872Z,79.8
2022-11-15T16:15:25.850Z,79.8
2022-11-15T16:25:25.895Z,79.7
2022-11-15T16:35:25.877Z,79.9
2022-11-15T16:45:25.920Z,80.2
2022-11-15T16:55:25.921Z,81.4
2022-11-15T17:05:25.975Z,82.5
2022-11-15T17:15:25.971Z,83.5
2022-11-15T17:25:25.999Z,84.1
2022-11-15T17:35:26.018Z,84.5
2022-11-15T17:45:26.041Z,84.9
2022-11-15T17:55:26.034Z,85.3
2022-11-15T18:05:26.095Z,87.7
2022-11-15T18:45:26.173Z,94.6
2022-11-15T19:45:26.281Z,97.5
2022-11-15T19:55:26.303Z,97.8
2022-11-15T22:15:26.589Z,99.2
